createdAt,value
2023-02-15T00:02:58.063Z,20.83
2023-02-15T00:06:01.025Z,22.30
2023-02-15T00:09:04.534Z,21.63
2023-02-15T00:12:07.449Z,21.03
2023-02-15T00:15:10.192Z,21.67
2023-02-15T00:18:12.861Z,21.17
2023-02-15T00:21:15.504Z,21.75
2023-02-15T00:24:20.408Z,21.40
2023-02-15T00:27:23.096Z,22.33
2023-02-15T00:30:25.850Z,21.60
2023-02-15T00:33:28.426Z,21.30
2023-02-15T00:36:31.099Z,20.40
2023-02-15T00:39:33.731Z,20.80
2023-02-15T00:42:36.349Z,20.83
2023-02-15T00:45:39.035Z,21.80
2023-02-15T00:48:41.707Z,21.15
2023-02-15T00:51:44.421Z,21.02
2023-02-15T00:54:47.260Z,21.55
2023-02-15T00:57:49.974Z,20.23
2023-02-15T01:00:53.857Z,20.88
2023-02-15T01:03:56.809Z,21.42
2023-02-15T01:06:59.580Z,21.23
2023-02-15T01:10:02.308Z,20.88
2023-02-15T01:13:05.225Z,20.67
2023-02-15T01:16:10.062Z,20.08
2023-02-15T01:19:13.404Z,20.55
2023-02-15T01:22:16.000Z,20.48
2023-02-15T01:25:19.274Z,20.30
2023-02-15T01:28:21.914Z,20.20
2023-02-15T01:31:24.784Z,20.75
2023-02-15T01:34:27.749Z,19.85
2023-02-15T01:37:32.552Z,21.13
2023-02-15T01:40:35.245Z,19.83
2023-02-15T01:43:47.808Z,19.57
2023-02-15T01:46:53.677Z,20.65
2023-02-15T01:50:04.413Z,19.35
2023-02-15T01:53:10.346Z,20.80
2023-02-15T01:56:19.340Z,19.45
2023-02-15T01:59:26.965Z,19.10
2023-02-15T02:02:30.119Z,20.33
2023-02-15T02:05:33.884Z,20.02
2023-02-15T02:08:37.200Z,20.27
2023-02-15T02:11:41.450Z,19.90
2023-02-15T02:14:45.777Z,19.60
2023-02-15T02:18:04.640Z,19.30
2023-02-15T02:21:24.779Z,20.40
2023-02-15T02:24:55.315Z,19.52
2023-02-15T02:28:12.973Z,19.52
2023-02-15T02:31:44.937Z,19.53
2023-02-15T02:34:58.537Z,20.08
2023-02-15T02:38:20.963Z,20.42
2023-02-15T02:41:44.882Z,18.70
2023-02-15T02:45:01.833Z,19.88
2023-02-15T02:48:29.376Z,17.97
2023-02-15T02:51:32.197Z,18.73
2023-02-15T02:54:37.192Z,18.50
2023-02-15T02:57:48.279Z,18.98
2023-02-15T03:01:07.360Z,18.88
2023-02-15T03:04:19.803Z,19.50
2023-02-15T03:07:24.102Z,18.88
2023-02-15T03:10:28.974Z,18.60
2023-02-15T03:13:33.190Z,18.13
2023-02-15T03:16:36.337Z,19.05
2023-02-15T03:19:40.065Z,17.80
2023-02-15T03:22:56.676Z,19.10
2023-02-15T03:26:03.637Z,18.42
2023-02-15T03:29:11.407Z,18.02
2023-02-15T03:32:16.886Z,18.65
2023-02-15T03:35:24.082Z,18.63
2023-02-15T03:38:35.272Z,18.38
2023-02-15T03:41:51.128Z,18.38
2023-02-15T03:45:12.561Z,18.52
2023-02-15T03:48:15.865Z,18.50
2023-02-15T03:51:34.847Z,17.67
2023-02-15T03:54:44.483Z,18.55
2023-02-15T03:58:05.916Z,18.13
2023-02-15T04:01:50.437Z,18.77
2023-02-15T04:04:52.997Z,19.20
2023-02-15T04:07:55.596Z,18.13
2023-02-15T04:10:58.189Z,18.20
2023-02-15T04:14:22.833Z,18.92
2023-02-15T04:17:25.444Z,17.10
2023-02-15T04:20:46.927Z,18.77
2023-02-15T04:24:08.268Z,17.67
2023-02-15T04:27:10.915Z,18.08
2023-02-15T04:30:15.448Z,18.10
2023-02-15T04:33:18.247Z,17.50
2023-02-15T04:36:20.849Z,18.40
2023-02-15T04:39:23.606Z,18.17
2023-02-15T04:42:27.517Z,17.17
2023-02-15T04:45:30.455Z,17.70
2023-02-15T04:48:33.136Z,18.38
2023-02-15T04:51:36.051Z,18.25
2023-02-15T04:54:39.224Z,16.73
2023-02-15T04:57:42.239Z,17.67
2023-02-15T05:00:44.909Z,17.75
2023-02-15T05:03:47.636Z,17.42
2023-02-15T05:06:50.590Z,16.70
2023-02-15T05:09:53.481Z,17.43
2023-02-15T05:12:56.149Z,17.70
2023-02-15T05:15:58.874Z,17.38
2023-02-15T05:19:01.938Z,17.60
2023-02-15T05:22:05.582Z,16.27
2023-02-15T05:25:28.972Z,17.53
2023-02-15T05:28:31.754Z,17.25
2023-02-15T05:31:35.838Z,17.30
2023-02-15T05:34:38.740Z,16.85
2023-02-15T05:37:41.312Z,17.23
2023-02-15T05:40:44.349Z,16.70
2023-02-15T05:43:47.045Z,16.67
2023-02-15T05:46:49.652Z,16.88
2023-02-15T05:49:52.806Z,17.27
2023-02-15T05:52:55.447Z,17.45
2023-02-15T05:56:00.998Z,17.40
2023-02-15T05:59:04.026Z,16.70
2023-02-15T06:02:07.805Z,17.60
2023-02-15T06:05:10.393Z,16.95
2023-02-15T06:08:13.046Z,17.38
2023-02-15T06:11:15.696Z,17.17
2023-02-15T06:14:18.547Z,18.60
2023-02-15T06:17:23.920Z,18.40
2023-02-15T06:20:29.338Z,17.65
2023-02-15T06:23:34.115Z,17.60
2023-02-15T06:26:39.176Z,18.03
2023-02-15T06:29:44.332Z,18.13
2023-02-15T06:36:09.805Z,16.95
2023-02-15T06:39:12.492Z,18.77
2023-02-15T06:42:15.093Z,17.80
2023-02-15T06:45:18.159Z,18.38
2023-02-15T06:48:21.856Z,17.77
2023-02-15T06:51:30.486Z,17.98
2023-02-15T06:54:34.158Z,18.15
2023-02-15T06:57:39.413Z,16.23
2023-02-15T07:00:42.366Z,16.48
2023-02-15T07:03:45.532Z,16.98
2023-02-15T07:06:49.092Z,17.23
2023-02-15T07:09:52.346Z,16.42
2023-02-15T07:12:55.315Z,16.07
2023-02-15T07:16:00.651Z,16.70
2023-02-15T07:19:08.506Z,17.60
2023-02-15T07:22:11.492Z,15.98
2023-02-15T07:25:14.465Z,17.08
2023-02-15T07:28:17.353Z,16.47
2023-02-15T07:31:21.602Z,16.77
2023-02-15T07:34:28.056Z,16.90
2023-02-15T07:37:30.816Z,16.35
2023-02-15T07:40:34.277Z,16.38
2023-02-15T07:43:42.971Z,16.30
2023-02-15T07:46:45.627Z,15.85
2023-02-15T07:49:50.460Z,15.73
2023-02-15T07:52:53.349Z,15.50
2023-02-15T07:55:59.229Z,15.50
2023-02-15T07:59:04.201Z,16.63
2023-02-15T08:02:11.891Z,16.20
2023-02-15T08:05:20.024Z,16.85
2023-02-15T08:08:31.566Z,15.80
2023-02-15T08:11:40.926Z,16.33
2023-02-15T08:14:44.393Z,15.43
2023-02-15T08:17:47.188Z,15.25
2023-02-15T08:20:51.402Z,15.88
2023-02-15T08:23:54.622Z,15.48
2023-02-15T08:26:58.128Z,15.15
2023-02-15T08:30:00.877Z,15.27
2023-02-15T08:33:05.232Z,15.05
2023-02-15T08:36:15.778Z,15.93
2023-02-15T08:39:20.109Z,16.40
2023-02-15T08:42:24.032Z,14.90
2023-02-15T08:45:26.800Z,14.90
2023-02-15T08:48:29.674Z,15.40
2023-02-15T08:51:35.236Z,15.43
2023-02-15T08:54:38.213Z,14.35
2023-02-15T08:57:45.918Z,14.93
2023-02-15T09:00:49.013Z,14.20
2023-02-15T09:03:55.835Z,14.57
2023-02-15T09:07:07.283Z,14.80
2023-02-15T09:10:13.814Z,13.63
2023-02-15T09:13:16.393Z,14.13
2023-02-15T09:16:21.557Z,13.53
2023-02-15T09:19:25.234Z,14.07
2023-02-15T09:22:28.125Z,14.40
2023-02-15T09:25:30.844Z,13.80
2023-02-15T09:28:36.662Z,13.32
2023-02-15T09:31:45.541Z,13.53
2023-02-15T09:34:48.704Z,13.55
2023-02-15T09:37:51.315Z,14.13
2023-02-15T09:41:14.772Z,14.25
2023-02-15T09:44:51.567Z,13.25
2023-02-15T09:48:11.459Z,13.37
2023-02-15T09:51:47.291Z,12.82
2023-02-15T09:55:07.411Z,12.73
2023-02-15T09:58:31.978Z,12.65
2023-02-15T10:01:50.116Z,12.57
2023-02-15T10:05:25.583Z,12.63
2023-02-15T10:08:50.324Z,12.88
2023-02-15T10:12:12.814Z,12.95
2023-02-15T10:15:53.289Z,12.45
2023-02-15T10:19:04.731Z,12.35
2023-02-15T10:22:19.773Z,11.93
2023-02-15T10:25:53.062Z,11.88
2023-02-15T10:29:37.890Z,11.50
2023-02-15T10:37:11.754Z,11.73
2023-02-15T10:40:36.533Z,11.37
2023-02-15T10:43:51.035Z,11.80
2023-02-15T10:47:46.965Z,11.40
2023-02-15T10:51:02.096Z,11.63
2023-02-15T10:54:26.611Z,11.40
2023-02-15T10:57:36.913Z,11.47
2023-02-15T11:08:13.773Z,11.15
2023-02-15T11:11:24.108Z,10.55
2023-02-15T11:14:29.307Z,11.00
2023-02-15T11:17:40.770Z,10.70
2023-02-15T11:20:47.330Z,11.80
2023-02-15T11:23:51.502Z,11.13
2023-02-15T11:27:21.570Z,10.18
2023-02-15T11:30:34.965Z,10.57
2023-02-15T11:33:44.465Z,10.30
2023-02-15T11:36:50.081Z,10.02
2023-02-15T11:39:55.767Z,11.15
2023-02-15T11:43:06.924Z,9.82
2023-02-15T11:46:13.815Z,10.77
2023-02-15T11:49:31.403Z,10.27
2023-02-15T11:52:34.491Z,10.30
2023-02-15T11:55:39.325Z,9.90
2023-02-15T11:59:08.421Z,10.68
2023-02-15T12:02:19.289Z,9.80
2023-02-15T12:05:27.192Z,10.30
2023-02-15T12:08:41.473Z,10.20
2023-02-15T12:11:44.314Z,10.13
2023-02-15T12:14:55.567Z,10.55
2023-02-15T12:17:58.652Z,10.13
2023-02-15T12:21:11.417Z,10.10
2023-02-15T12:24:29.331Z,9.90
2023-02-15T12:27:36.057Z,10.13
2023-02-15T12:30:39.198Z,9.90
2023-02-15T12:33:47.159Z,9.53
2023-02-15T12:36:59.682Z,9.52
2023-02-15T12:40:21.515Z,9.63
2023-02-15T12:43:43.626Z,9.55
2023-02-15T12:47:19.632Z,9.65
2023-02-15T12:50:34.571Z,9.33
2023-02-15T12:53:45.266Z,9.52
2023-02-15T12:56:49.146Z,9.43
2023-02-15T12:59:53.417Z,9.80
2023-02-15T13:02:59.741Z,11.25
2023-02-15T13:06:09.211Z,11.17
2023-02-15T13:09:23.450Z,11.10
2023-02-15T13:12:32.214Z,11.23
2023-02-15T13:15:46.427Z,10.55
2023-02-15T13:18:54.118Z,10.80
2023-02-15T13:21:59.127Z,10.60
2023-02-15T13:25:13.706Z,9.57
2023-02-15T13:28:17.563Z,8.77
2023-02-15T13:31:26.100Z,8.13
2023-02-15T13:34:39.751Z,8.60
2023-02-15T13:38:19.103Z,8.13
2023-02-15T13:41:27.637Z,7.78
2023-02-15T13:44:49.340Z,8.60
2023-02-15T13:48:02.149Z,8.35
2023-02-15T13:51:41.793Z,8.10
2023-02-15T13:55:10.530Z,8.03
2023-02-15T13:58:33.482Z,8.07
2023-02-15T14:01:55.020Z,8.43
2023-02-15T14:05:14.749Z,8.00
2023-02-15T14:08:43.284Z,8.07
2023-02-15T14:12:11.325Z,8.33
2023-02-15T14:15:13.910Z,8.50
2023-02-15T14:18:33.189Z,8.13
2023-02-15T14:21:46.451Z,7.70
2023-02-15T14:25:10.995Z,7.68
2023-02-15T14:28:19.920Z,7.90
2023-02-15T14:31:31.608Z,7.82
2023-02-15T14:34:57.535Z,7.50
2023-02-15T14:38:05.830Z,7.70
2023-02-15T14:41:33.256Z,7.95
2023-02-15T14:44:42.617Z,7.33
2023-02-15T14:48:04.319Z,7.50
2023-02-15T14:51:08.210Z,8.10
2023-02-15T14:54:18.321Z,7.90
2023-02-15T14:57:26.314Z,8.13
2023-02-15T15:00:39.051Z,7.27
2023-02-15T15:03:54.138Z,8.10
2023-02-15T15:07:24.253Z,8.07
2023-02-15T15:10:27.112Z,8.45
2023-02-15T15:13:32.686Z,7.65
2023-02-15T15:16:38.262Z,7.87
2023-02-15T15:19:54.005Z,8.40
2023-02-15T15:23:15.760Z,8.82
2023-02-15T15:26:29.264Z,8.00
2023-02-15T15:29:41.555Z,7.65
2023-02-15T15:32:58.157Z,7.50
2023-02-15T15:36:28.701Z,6.80
2023-02-15T15:40:14.188Z,7.47
2023-02-15T15:43:56.017Z,8.13
2023-02-15T15:47:10.581Z,7.68
2023-02-15T15:50:15.682Z,7.77
2023-02-15T15:53:25.562Z,8.13
2023-02-15T15:56:35.337Z,7.50
2023-02-15T15:59:45.940Z,7.78
2023-02-15T16:02:53.216Z,8.55
2023-02-15T16:06:01.114Z,16.73
2023-02-15T16:09:17.563Z,10.68
2023-02-15T16:12:23.888Z,10.27
2023-02-15T16:15:53.351Z,11.10
2023-02-15T16:19:00.824Z,11.50
2023-02-15T16:22:05.004Z,10.00
2023-02-15T16:25:48.727Z,11.38
2023-02-15T16:28:58.153Z,10.68
2023-02-15T16:32:30.319Z,9.65
2023-02-15T16:35:35.141Z,9.77
2023-02-15T16:38:44.645Z,10.60
2023-02-15T16:41:50.543Z,10.35
2023-02-15T16:45:10.970Z,10.70
2023-02-15T16:48:21.585Z,10.50
2023-02-15T16:51:31.031Z,10.20
2023-02-15T16:54:36.336Z,10.60
2023-02-15T16:57:47.288Z,9.88
2023-02-15T17:00:52.528Z,10.07
2023-02-15T17:04:17.297Z,10.73
2023-02-15T17:07:22.153Z,10.90
2023-02-15T17:10:42.005Z,10.57
2023-02-15T17:14:06.428Z,10.38
2023-02-15T17:17:18.027Z,11.02
2023-02-15T17:20:23.996Z,10.52
2023-02-15T17:23:33.810Z,11.77
2023-02-15T17:26:39.358Z,10.97
2023-02-15T17:29:48.822Z,10.95
2023-02-15T17:33:04.706Z,12.43
2023-02-15T17:36:10.998Z,10.77
2023-02-15T17:39:23.838Z,12.32
2023-02-15T17:42:29.399Z,11.90
2023-02-15T17:45:41.524Z,11.52
2023-02-15T17:48:49.802Z,12.48
2023-02-15T17:51:59.380Z,13.05
2023-02-15T17:55:32.295Z,14.07
2023-02-15T17:58:38.243Z,13.03
2023-02-15T18:02:06.611Z,14.20
2023-02-15T18:05:34.044Z,13.65
2023-02-15T18:08:57.292Z,12.93
2023-02-15T18:12:02.746Z,13.88
2023-02-15T18:15:10.863Z,14.00
2023-02-15T18:18:17.040Z,14.77
2023-02-15T18:21:25.412Z,14.77
2023-02-15T18:24:31.326Z,15.77
2023-02-15T18:27:37.363Z,14.45
2023-02-15T18:30:46.013Z,15.23
2023-02-15T18:34:04.595Z,15.30
2023-02-15T18:37:16.524Z,15.70
2023-02-15T18:40:24.083Z,15.80
2023-02-15T18:43:29.174Z,17.10
2023-02-15T18:46:36.785Z,16.60
2023-02-15T18:49:41.710Z,16.13
2023-02-15T18:52:49.114Z,16.58
2023-02-15T18:55:55.683Z,16.33
2023-02-15T18:59:00.582Z,17.48
2023-02-15T19:02:27.460Z,17.50
2023-02-15T19:05:35.017Z,18.48
2023-02-15T19:08:39.549Z,19.70
2023-02-15T19:11:50.045Z,18.92
2023-02-15T19:14:56.589Z,19.10
2023-02-15T19:18:04.951Z,18.23
2023-02-15T19:21:16.666Z,18.40
2023-02-15T19:24:35.876Z,19.05
2023-02-15T19:27:42.894Z,18.48
2023-02-15T19:30:47.965Z,19.42
2023-02-15T19:33:53.699Z,19.43
2023-02-15T19:37:04.552Z,19.00
2023-02-15T19:40:33.484Z,19.75
2023-02-15T19:43:41.774Z,19.75
2023-02-15T19:46:49.985Z,19.63
2023-02-15T19:50:02.396Z,19.67
2023-02-15T19:53:21.379Z,19.67
2023-02-15T19:56:28.716Z,19.85
2023-02-15T19:59:37.346Z,19.83
2023-02-15T20:02:43.768Z,19.35
2023-02-15T20:05:50.955Z,19.07
2023-02-15T20:08:58.703Z,18.77
2023-02-15T20:12:05.005Z,20.15
2023-02-15T20:15:30.073Z,20.48
2023-02-15T20:18:35.945Z,19.60
2023-02-15T20:21:43.054Z,19.73
2023-02-15T20:24:50.503Z,19.10
2023-02-15T20:27:55.440Z,19.52
2023-02-15T20:31:03.768Z,19.67
2023-02-15T20:34:09.766Z,20.02
2023-02-15T20:37:24.281Z,19.93
2023-02-15T20:40:36.000Z,19.92
2023-02-15T20:43:42.632Z,20.17
2023-02-15T20:46:54.173Z,20.08
2023-02-15T20:49:59.868Z,20.60
2023-02-15T20:53:06.999Z,20.50
2023-02-15T20:56:24.316Z,20.30
2023-02-15T20:59:34.805Z,21.63
2023-02-15T21:02:40.212Z,20.73
2023-02-15T21:05:51.345Z,20.73
2023-02-15T21:08:57.444Z,20.33
2023-02-15T21:12:03.878Z,20.30
2023-02-15T21:15:26.522Z,20.95
2023-02-15T21:18:34.977Z,20.50
2023-02-15T21:21:39.400Z,21.60
2023-02-15T21:24:55.540Z,20.17
2023-02-15T21:28:00.016Z,20.88
2023-02-15T21:31:04.593Z,20.38
2023-02-15T21:34:09.186Z,20.88
2023-02-15T21:37:43.565Z,21.27
2023-02-15T21:40:47.934Z,20.17
2023-02-15T21:44:12.397Z,21.17
2023-02-15T21:47:42.163Z,20.45
2023-02-15T21:51:03.828Z,20.63
2023-02-15T21:54:12.238Z,22.48
2023-02-15T21:57:17.725Z,20.50
2023-02-15T22:00:24.487Z,19.52
2023-02-15T22:03:33.596Z,20.80
2023-02-15T22:06:36.320Z,20.42
2023-02-15T22:09:39.256Z,20.83
2023-02-15T22:12:43.513Z,21.47
2023-02-15T22:15:47.533Z,21.60
2023-02-15T22:18:50.365Z,22.08
2023-02-15T22:21:53.000Z,20.50
2023-02-15T22:24:55.591Z,20.10
2023-02-15T22:27:58.399Z,20.57
2023-02-15T22:31:01.641Z,21.45
2023-02-15T22:34:04.415Z,20.60
2023-02-15T22:37:08.649Z,20.48
2023-02-15T22:40:14.834Z,21.38
2023-02-15T22:43:40.631Z,20.23
2023-02-15T22:46:43.307Z,20.35
2023-02-15T22:49:45.880Z,20.77
2023-02-15T22:52:49.764Z,20.88
2023-02-15T22:55:53.530Z,20.73
2023-02-15T22:59:01.453Z,20.80
2023-02-15T23:02:06.491Z,20.80
2023-02-15T23:05:35.412Z,21.05
2023-02-15T23:20:55.604Z,21.73
